sensor_id;sensor_type;location;lat;lon;timestamp;P1;durP1;ratioP1;P2;durP2;ratioP2
35488;SDS011;21602;55.670;37.578;2023-04-23T00:00:51;13.40;;;4.78;;
35488;SDS011;21602;55.670;37.578;2023-04-23T00:03:18;14.47;;;4.53;;
35488;SDS011;21602;55.670;37.578;2023-04-23T00:05:46;7.80;;;4.38;;
35488;SDS011;21602;55.670;37.578;2023-04-23T00:10:42;10.55;;;3.80;;
35488;SDS011;21602;55.670;37.578;2023-04-23T00:13:08;7.00;;;3.88;;
35488;SDS011;21602;55.670;37.578;2023-04-23T00:15:34;12.93;;;3.78;;
35488;SDS011;21602;55.670;37.578;2023-04-23T00:18:01;5.82;;;3.20;;
35488;SDS011;21602;55.670;37.578;2023-04-23T00:20:26;10.38;;;4.20;;
35488;SDS011;21602;55.670;37.578;2023-04-23T00:22:52;9.77;;;3.85;;
35488;SDS011;21602;55.670;37.578;2023-04-23T00:25:18;10.40;;;4.03;;
35488;SDS011;21602;55.670;37.578;2023-04-23T00:27:45;11.23;;;3.85;;
35488;SDS011;21602;55.670;37.578;2023-04-23T00:30:12;12.75;;;4.03;;
35488;SDS011;21602;55.670;37.578;2023-04-23T00:32:38;7.22;;;3.67;;
35488;SDS011;21602;55.670;37.578;2023-04-23T00:35:04;6.47;;;3.30;;
35488;SDS011;21602;55.670;37.578;2023-04-23T00:37:33;7.82;;;3.78;;
35488;SDS011;21602;55.670;37.578;2023-04-23T00:39:59;7.43;;;4.15;;
35488;SDS011;21602;55.670;37.578;2023-04-23T00:42:25;5.60;;;3.83;;
35488;SDS011;21602;55.670;37.578;2023-04-23T00:44:52;8.50;;;3.85;;
35488;SDS011;21602;55.670;37.578;2023-04-23T00:47:18;5.18;;;3.05;;
35488;SDS011;21602;55.670;37.578;2023-04-23T00:49:45;7.70;;;3.35;;
35488;SDS011;21602;55.670;37.578;2023-04-23T00:52:12;5.55;;;3.10;;
35488;SDS011;21602;55.670;37.578;2023-04-23T00:54:38;7.82;;;3.65;;
35488;SDS011;21602;55.670;37.578;2023-04-23T00:57:04;9.45;;;3.85;;
35488;SDS011;21602;55.670;37.578;2023-04-23T00:59:33;8.05;;;3.67;;
35488;SDS011;21602;55.670;37.578;2023-04-23T01:02:00;10.15;;;4.05;;
35488;SDS011;21602;55.670;37.578;2023-04-23T01:04:27;8.57;;;4.13;;
35488;SDS011;21602;55.670;37.578;2023-04-23T01:06:55;15.70;;;4.57;;
35488;SDS011;21602;55.670;37.578;2023-04-23T01:09:22;9.38;;;3.75;;
35488;SDS011;21602;55.670;37.578;2023-04-23T01:11:49;7.20;;;4.20;;
35488;SDS011;21602;55.670;37.578;2023-04-23T01:14:16;8.13;;;4.25;;
35488;SDS011;21602;55.670;37.578;2023-04-23T01:16:41;7.13;;;3.08;;
35488;SDS011;21602;55.670;37.578;2023-04-23T01:19:08;8.32;;;3.85;;
35488;SDS011;21602;55.670;37.578;2023-04-23T01:21:35;6.78;;;3.60;;
35488;SDS011;21602;55.670;37.578;2023-04-23T01:24:03;7.63;;;3.72;;
35488;SDS011;21602;55.670;37.578;2023-04-23T01:26:30;7.13;;;3.42;;
35488;SDS011;21602;55.670;37.578;2023-04-23T01:28:56;7.63;;;3.28;;
35488;SDS011;21602;55.670;37.578;2023-04-23T01:31:24;9.10;;;3.90;;
35488;SDS011;21602;55.670;37.578;2023-04-23T01:33:50;11.95;;;3.25;;
35488;SDS011;21602;55.670;37.578;2023-04-23T01:36:20;7.90;;;3.50;;
35488;SDS011;21602;55.670;37.578;2023-04-23T01:38:47;4.82;;;3.00;;
35488;SDS011;21602;55.670;37.578;2023-04-23T01:41:13;4.70;;;3.70;;
35488;SDS011;21602;55.670;37.578;2023-04-23T01:43:40;5.97;;;3.55;;
35488;SDS011;21602;55.670;37.578;2023-04-23T01:46:06;8.48;;;3.33;;
35488;SDS011;21602;55.670;37.578;2023-04-23T01:48:32;7.65;;;3.53;;
35488;SDS011;21602;55.670;37.578;2023-04-23T01:50:59;8.63;;;2.90;;
35488;SDS011;21602;55.670;37.578;2023-04-23T01:53:25;6.35;;;3.10;;
35488;SDS011;21602;55.670;37.578;2023-04-23T01:55:51;7.88;;;3.28;;
35488;SDS011;21602;55.670;37.578;2023-04-23T01:58:21;6.15;;;2.85;;
35488;SDS011;21602;55.670;37.578;2023-04-23T02:00:49;5.25;;;3.13;;
35488;SDS011;21602;55.670;37.578;2023-04-23T02:03:15;6.93;;;2.80;;
35488;SDS011;21602;55.670;37.578;2023-04-23T02:05:42;6.15;;;3.75;;
35488;SDS011;21602;55.670;37.578;2023-04-23T02:08:08;10.13;;;4.45;;
35488;SDS011;21602;55.670;37.578;2023-04-23T02:10:35;7.32;;;3.17;;
35488;SDS011;21602;55.670;37.578;2023-04-23T02:13:01;6.05;;;3.15;;
35488;SDS011;21602;55.670;37.578;2023-04-23T02:15:29;7.40;;;3.95;;
35488;SDS011;21602;55.670;37.578;2023-04-23T02:17:54;6.20;;;3.47;;
35488;SDS011;21602;55.670;37.578;2023-04-23T02:20:21;3.70;;;2.78;;
35488;SDS011;21602;55.670;37.578;2023-04-23T02:22:47;4.85;;;3.10;;
35488;SDS011;21602;55.670;37.578;2023-04-23T02:25:15;5.07;;;3.47;;
35488;SDS011;21602;55.670;37.578;2023-04-23T02:27:45;5.47;;;3.80;;
35488;SDS011;21602;55.670;37.578;2023-04-23T02:30:11;11.60;;;3.40;;
35488;SDS011;21602;55.670;37.578;2023-04-23T02:32:38;5.93;;;3.25;;
35488;SDS011;21602;55.670;37.578;2023-04-23T02:35:04;5.57;;;3.03;;
35488;SDS011;21602;55.670;37.578;2023-04-23T02:37:32;7.03;;;2.92;;
35488;SDS011;21602;55.670;37.578;2023-04-23T02:39:58;6.22;;;2.97;;
35488;SDS011;21602;55.670;37.578;2023-04-23T02:42:25;5.35;;;3.10;;
35488;SDS011;21602;55.670;37.578;2023-04-23T02:44:50;5.57;;;3.13;;
35488;SDS011;21602;55.670;37.578;2023-04-23T02:47:17;5.85;;;3.17;;
35488;SDS011;21602;55.670;37.578;2023-04-23T02:49:43;5.50;;;2.88;;
35488;SDS011;21602;55.670;37.578;2023-04-23T02:52:09;6.63;;;2.53;;
35488;SDS011;21602;55.670;37.578;2023-04-23T02:54:36;8.52;;;3.50;;
35488;SDS011;21602;55.670;37.578;2023-04-23T02:57:02;4.85;;;2.65;;
35488;SDS011;21602;55.670;37.578;2023-04-23T02:59:29;5.47;;;3.10;;
35488;SDS011;21602;55.670;37.578;2023-04-23T03:01:55;7.53;;;3.75;;
35488;SDS011;21602;55.670;37.578;2023-04-23T03:04:21;9.25;;;3.60;;
35488;SDS011;21602;55.670;37.578;2023-04-23T03:06:49;6.70;;;3.47;;
35488;SDS011;21602;55.670;37.578;2023-04-23T03:09:15;4.95;;;3.10;;
35488;SDS011;21602;55.670;37.578;2023-04-23T03:11:41;5.70;;;2.72;;
35488;SDS011;21602;55.670;37.578;2023-04-23T03:14:11;8.55;;;3.80;;
35488;SDS011;21602;55.670;37.578;2023-04-23T03:16:37;5.32;;;2.78;;
35488;SDS011;21602;55.670;37.578;2023-04-23T03:19:04;5.93;;;2.72;;
35488;SDS011;21602;55.670;37.578;2023-04-23T03:21:30;3.17;;;2.75;;
35488;SDS011;21602;55.670;37.578;2023-04-23T03:23:56;6.78;;;2.53;;
35488;SDS011;21602;55.670;37.578;2023-04-23T03:26:22;5.03;;;2.80;;
35488;SDS011;21602;55.670;37.578;2023-04-23T03:28:47;7.18;;;2.85;;
35488;SDS011;21602;55.670;37.578;2023-04-23T03:31:13;6.68;;;2.72;;
35488;SDS011;21602;55.670;37.578;2023-04-23T03:33:39;5.28;;;2.65;;
35488;SDS011;21602;55.670;37.578;2023-04-23T03:36:05;17.00;;;3.47;;
35488;SDS011;21602;55.670;37.578;2023-04-23T03:38:32;3.60;;;2.33;;
35488;SDS011;21602;55.670;37.578;2023-04-23T03:40:59;3.67;;;2.43;;
35488;SDS011;21602;55.670;37.578;2023-04-23T03:43:26;2.92;;;2.25;;
35488;SDS011;21602;55.670;37.578;2023-04-23T03:46:12;5.47;;;2.85;;
35488;SDS011;21602;55.670;37.578;2023-04-23T03:48:40;5.68;;;2.53;;
35488;SDS011;21602;55.670;37.578;2023-04-23T03:51:12;3.33;;;2.60;;
35488;SDS011;21602;55.670;37.578;2023-04-23T03:53:43;3.20;;;2.28;;
35488;SDS011;21602;55.670;37.578;2023-04-23T03:56:29;3.10;;;2.03;;
35488;SDS011;21602;55.670;37.578;2023-04-23T03:59:07;3.78;;;1.63;;
35488;SDS011;21602;55.670;37.578;2023-04-23T04:01:33;4.82;;;2.45;;
35488;SDS011;21602;55.670;37.578;2023-04-23T04:04:01;9.52;;;2.47;;
35488;SDS011;21602;55.670;37.578;2023-04-23T04:06:27;5.05;;;1.88;;
35488;SDS011;21602;55.670;37.578;2023-04-23T04:08:54;2.90;;;2.28;;
35488;SDS011;21602;55.670;37.578;2023-04-23T04:11:21;3.60;;;1.73;;
35488;SDS011;21602;55.670;37.578;2023-04-23T04:13:47;3.85;;;1.35;;
35488;SDS011;21602;55.670;37.578;2023-04-23T04:16:13;3.03;;;1.73;;
35488;SDS011;21602;55.670;37.578;2023-04-23T04:18:38;2.95;;;1.67;;
35488;SDS011;21602;55.670;37.578;2023-04-23T04:21:04;2.55;;;1.83;;
35488;SDS011;21602;55.670;37.578;2023-04-23T04:23:30;1.60;;;1.42;;
35488;SDS011;21602;55.670;37.578;2023-04-23T04:25:58;2.47;;;2.00;;
35488;SDS011;21602;55.670;37.578;2023-04-23T04:28:24;4.03;;;1.92;;
35488;SDS011;21602;55.670;37.578;2023-04-23T04:30:53;4.47;;;1.58;;
35488;SDS011;21602;55.670;37.578;2023-04-23T04:33:28;6.40;;;2.53;;
35488;SDS011;21602;55.670;37.578;2023-04-23T04:35:54;3.53;;;2.40;;
35488;SDS011;21602;55.670;37.578;2023-04-23T04:38:21;13.18;;;2.78;;
35488;SDS011;21602;55.670;37.578;2023-04-23T04:40:47;3.72;;;2.03;;
35488;SDS011;21602;55.670;37.578;2023-04-23T04:43:15;5.47;;;2.78;;
35488;SDS011;21602;55.670;37.578;2023-04-23T04:45:42;4.15;;;2.10;;
35488;SDS011;21602;55.670;37.578;2023-04-23T04:48:09;6.75;;;3.35;;
35488;SDS011;21602;55.670;37.578;2023-04-23T04:50:35;5.55;;;2.65;;
35488;SDS011;21602;55.670;37.578;2023-04-23T04:53:01;7.13;;;2.30;;
35488;SDS011;21602;55.670;37.578;2023-04-23T04:55:27;2.72;;;2.05;;
35488;SDS011;21602;55.670;37.578;2023-04-23T04:57:53;6.30;;;2.10;;
35488;SDS011;21602;55.670;37.578;2023-04-23T05:00:21;6.95;;;2.63;;
35488;SDS011;21602;55.670;37.578;2023-04-23T05:02:50;2.33;;;1.70;;
35488;SDS011;21602;55.670;37.578;2023-04-23T05:05:17;4.50;;;2.05;;
35488;SDS011;21602;55.670;37.578;2023-04-23T05:07:43;5.63;;;2.42;;
35488;SDS011;21602;55.670;37.578;2023-04-23T05:10:10;5.18;;;3.03;;
35488;SDS011;21602;55.670;37.578;2023-04-23T05:12:36;9.60;;;2.15;;
35488;SDS011;21602;55.670;37.578;2023-04-23T05:15:09;6.03;;;2.03;;
35488;SDS011;21602;55.670;37.578;2023-04-23T05:17:38;4.53;;;2.30;;
35488;SDS011;21602;55.670;37.578;2023-04-23T05:20:05;4.45;;;2.10;;
35488;SDS011;21602;55.670;37.578;2023-04-23T05:22:38;4.30;;;2.30;;
35488;SDS011;21602;55.670;37.578;2023-04-23T05:25:08;6.22;;;2.30;;
35488;SDS011;21602;55.670;37.578;2023-04-23T05:27:36;5.38;;;2.35;;
35488;SDS011;21602;55.670;37.578;2023-04-23T05:30:02;3.67;;;2.00;;
35488;SDS011;21602;55.670;37.578;2023-04-23T05:32:32;4.15;;;2.45;;
35488;SDS011;21602;55.670;37.578;2023-04-23T05:34:59;3.78;;;2.17;;
35488;SDS011;21602;55.670;37.578;2023-04-23T05:37:33;2.55;;;1.92;;
35488;SDS011;21602;55.670;37.578;2023-04-23T05:39:59;8.20;;;2.40;;
35488;SDS011;21602;55.670;37.578;2023-04-23T05:42:26;4.10;;;2.30;;
35488;SDS011;21602;55.670;37.578;2023-04-23T05:44:52;4.40;;;2.72;;
35488;SDS011;21602;55.670;37.578;2023-04-23T05:47:18;4.53;;;2.63;;
35488;SDS011;21602;55.670;37.578;2023-04-23T05:49:44;7.65;;;2.17;;
35488;SDS011;21602;55.670;37.578;2023-04-23T05:52:10;5.85;;;2.42;;
35488;SDS011;21602;55.670;37.578;2023-04-23T05:54:36;3.92;;;2.47;;
35488;SDS011;21602;55.670;37.578;2023-04-23T05:57:02;5.30;;;2.53;;
35488;SDS011;21602;55.670;37.578;2023-04-23T05:59:29;5.32;;;2.30;;
35488;SDS011;21602;55.670;37.578;2023-04-23T06:01:56;4.40;;;2.17;;
35488;SDS011;21602;55.670;37.578;2023-04-23T06:04:22;7.18;;;2.45;;
35488;SDS011;21602;55.670;37.578;2023-04-23T06:06:48;12.73;;;2.72;;
35488;SDS011;21602;55.670;37.578;2023-04-23T06:09:14;3.28;;;1.63;;
35488;SDS011;21602;55.670;37.578;2023-04-23T06:11:40;8.68;;;2.25;;
35488;SDS011;21602;55.670;37.578;2023-04-23T06:16:34;5.88;;;3.03;;
35488;SDS011;21602;55.670;37.578;2023-04-23T06:19:00;4.97;;;2.75;;
35488;SDS011;21602;55.670;37.578;2023-04-23T06:21:26;6.38;;;2.65;;
35488;SDS011;21602;55.670;37.578;2023-04-23T06:23:52;7.60;;;2.28;;
35488;SDS011;21602;55.670;37.578;2023-04-23T06:26:18;6.07;;;2.30;;
35488;SDS011;21602;55.670;37.578;2023-04-23T06:28:47;9.55;;;2.60;;
35488;SDS011;21602;55.670;37.578;2023-04-23T06:31:35;8.70;;;2.45;;
35488;SDS011;21602;55.670;37.578;2023-04-23T06:34:01;6.32;;;2.35;;
35488;SDS011;21602;55.670;37.578;2023-04-23T06:36:28;5.43;;;2.15;;
35488;SDS011;21602;55.670;37.578;2023-04-23T06:38:53;3.17;;;2.00;;
35488;SDS011;21602;55.670;37.578;2023-04-23T06:41:20;7.30;;;2.58;;
35488;SDS011;21602;55.670;37.578;2023-04-23T06:43:59;6.65;;;2.40;;
35488;SDS011;21602;55.670;37.578;2023-04-23T06:46:45;4.97;;;2.85;;
35488;SDS011;21602;55.670;37.578;2023-04-23T06:49:11;5.05;;;2.25;;
35488;SDS011;21602;55.670;37.578;2023-04-23T06:51:37;10.05;;;3.25;;
35488;SDS011;21602;55.670;37.578;2023-04-23T06:54:02;6.93;;;4.22;;
35488;SDS011;21602;55.670;37.578;2023-04-23T06:56:28;5.07;;;2.88;;
35488;SDS011;21602;55.670;37.578;2023-04-23T06:58:54;8.27;;;3.35;;
35488;SDS011;21602;55.670;37.578;2023-04-23T07:01:20;4.70;;;3.35;;
35488;SDS011;21602;55.670;37.578;2023-04-23T07:03:46;8.88;;;3.67;;
35488;SDS011;21602;55.670;37.578;2023-04-23T07:06:15;7.22;;;3.25;;
35488;SDS011;21602;55.670;37.578;2023-04-23T07:11:09;11.32;;;3.25;;
35488;SDS011;21602;55.670;37.578;2023-04-23T07:13:36;13.73;;;3.58;;
35488;SDS011;21602;55.670;37.578;2023-04-23T07:16:02;10.27;;;4.00;;
35488;SDS011;21602;55.670;37.578;2023-04-23T07:18:28;9.98;;;4.28;;
35488;SDS011;21602;55.670;37.578;2023-04-23T07:20:53;7.90;;;4.03;;
35488;SDS011;21602;55.670;37.578;2023-04-23T07:23:20;10.45;;;4.53;;
35488;SDS011;21602;55.670;37.578;2023-04-23T07:25:46;14.23;;;5.63;;
35488;SDS011;21602;55.670;37.578;2023-04-23T07:28:12;10.05;;;5.15;;
35488;SDS011;21602;55.670;37.578;2023-04-23T07:30:38;8.85;;;5.30;;
35488;SDS011;21602;55.670;37.578;2023-04-23T07:33:04;9.70;;;5.72;;
35488;SDS011;21602;55.670;37.578;2023-04-23T07:35:29;12.20;;;6.20;;
35488;SDS011;21602;55.670;37.578;2023-04-23T07:37:55;8.00;;;4.88;;
35488;SDS011;21602;55.670;37.578;2023-04-23T07:40:22;10.15;;;4.82;;
35488;SDS011;21602;55.670;37.578;2023-04-23T07:42:49;7.82;;;4.88;;
35488;SDS011;21602;55.670;37.578;2023-04-23T07:45:16;7.03;;;4.47;;
35488;SDS011;21602;55.670;37.578;2023-04-23T07:47:42;9.25;;;4.88;;
35488;SDS011;21602;55.670;37.578;2023-04-23T07:50:10;10.85;;;4.57;;
35488;SDS011;21602;55.670;37.578;2023-04-23T07:52:36;11.60;;;4.85;;
35488;SDS011;21602;55.670;37.578;2023-04-23T07:55:02;12.40;;;3.97;;
35488;SDS011;21602;55.670;37.578;2023-04-23T07:57:29;11.93;;;4.82;;
35488;SDS011;21602;55.670;37.578;2023-04-23T07:59:55;3.70;;;3.20;;
35488;SDS011;21602;55.670;37.578;2023-04-23T08:02:24;4.97;;;1.95;;
35488;SDS011;21602;55.670;37.578;2023-04-23T08:04:52;6.55;;;2.60;;
35488;SDS011;21602;55.670;37.578;2023-04-23T08:07:18;8.25;;;2.75;;
35488;SDS011;21602;55.670;37.578;2023-04-23T08:09:46;4.82;;;2.40;;
35488;SDS011;21602;55.670;37.578;2023-04-23T08:12:13;3.25;;;2.45;;
35488;SDS011;21602;55.670;37.578;2023-04-23T08:14:41;4.03;;;2.90;;
35488;SDS011;21602;55.670;37.578;2023-04-23T08:17:12;5.63;;;2.13;;
35488;SDS011;21602;55.670;37.578;2023-04-23T08:19:38;3.13;;;2.33;;
35488;SDS011;21602;55.670;37.578;2023-04-23T08:22:04;9.63;;;4.45;;
35488;SDS011;21602;55.670;37.578;2023-04-23T08:24:30;4.72;;;2.10;;
35488;SDS011;21602;55.670;37.578;2023-04-23T08:26:56;4.30;;;1.63;;
35488;SDS011;21602;55.670;37.578;2023-04-23T08:29:25;3.17;;;1.80;;
35488;SDS011;21602;55.670;37.578;2023-04-23T08:31:57;2.53;;;1.83;;
35488;SDS011;21602;55.670;37.578;2023-04-23T08:34:29;3.88;;;1.83;;
35488;SDS011;21602;55.670;37.578;2023-04-23T08:36:58;6.65;;;1.75;;
35488;SDS011;21602;55.670;37.578;2023-04-23T08:39:24;4.38;;;1.80;;
35488;SDS011;21602;55.670;37.578;2023-04-23T08:41:55;2.33;;;1.48;;
35488;SDS011;21602;55.670;37.578;2023-04-23T08:44:28;1.77;;;1.00;;
35488;SDS011;21602;55.670;37.578;2023-04-23T08:46:55;1.92;;;1.00;;
35488;SDS011;21602;55.670;37.578;2023-04-23T08:49:26;4.38;;;1.30;;
35488;SDS011;21602;55.670;37.578;2023-04-23T08:51:58;4.68;;;2.20;;
35488;SDS011;21602;55.670;37.578;2023-04-23T08:54:36;3.03;;;1.17;;
35488;SDS011;21602;55.670;37.578;2023-04-23T08:57:06;2.50;;;1.10;;
35488;SDS011;21602;55.670;37.578;2023-04-23T08:59:34;3.97;;;1.40;;
35488;SDS011;21602;55.670;37.578;2023-04-23T09:02:01;3.95;;;2.00;;
35488;SDS011;21602;55.670;37.578;2023-04-23T09:04:34;5.53;;;2.05;;
35488;SDS011;21602;55.670;37.578;2023-04-23T09:07:01;6.55;;;2.15;;
35488;SDS011;21602;55.670;37.578;2023-04-23T09:09:29;5.32;;;2.63;;
35488;SDS011;21602;55.670;37.578;2023-04-23T09:11:55;6.05;;;2.60;;
35488;SDS011;21602;55.670;37.578;2023-04-23T09:14:23;3.67;;;2.05;;
35488;SDS011;21602;55.670;37.578;2023-04-23T09:16:50;5.82;;;2.00;;
35488;SDS011;21602;55.670;37.578;2023-04-23T09:19:17;4.13;;;1.90;;
35488;SDS011;21602;55.670;37.578;2023-04-23T09:21:44;2.67;;;1.65;;
35488;SDS011;21602;55.670;37.578;2023-04-23T09:24:11;1.70;;;1.40;;
35488;SDS011;21602;55.670;37.578;2023-04-23T09:26:47;9.05;;;1.40;;
35488;SDS011;21602;55.670;37.578;2023-04-23T09:29:18;4.57;;;1.42;;
35488;SDS011;21602;55.670;37.578;2023-04-23T09:31:46;4.18;;;1.42;;
35488;SDS011;21602;55.670;37.578;2023-04-23T09:34:15;1.65;;;1.20;;
35488;SDS011;21602;55.670;37.578;2023-04-23T09:36:46;5.03;;;1.50;;
35488;SDS011;21602;55.670;37.578;2023-04-23T09:39:15;5.03;;;1.50;;
35488;SDS011;21602;55.670;37.578;2023-04-23T09:41:43;3.38;;;1.27;;
35488;SDS011;21602;55.670;37.578;2023-04-23T09:44:16;1.95;;;1.27;;
35488;SDS011;21602;55.670;37.578;2023-04-23T09:46:42;8.38;;;1.85;;
35488;SDS011;21602;55.670;37.578;2023-04-23T09:49:09;1.45;;;1.10;;
35488;SDS011;21602;55.670;37.578;2023-04-23T09:51:40;10.63;;;1.10;;
35488;SDS011;21602;55.670;37.578;2023-04-23T09:56:37;3.88;;;1.52;;
35488;SDS011;21602;55.670;37.578;2023-04-23T09:59:09;1.13;;;1.00;;
35488;SDS011;21602;55.670;37.578;2023-04-23T10:01:44;4.57;;;1.38;;
35488;SDS011;21602;55.670;37.578;2023-04-23T10:04:11;2.95;;;1.30;;
35488;SDS011;21602;55.670;37.578;2023-04-23T10:06:43;2.13;;;1.45;;
35488;SDS011;21602;55.670;37.578;2023-04-23T10:09:08;3.60;;;1.48;;
35488;SDS011;21602;55.670;37.578;2023-04-23T10:11:34;5.43;;;1.70;;
35488;SDS011;21602;55.670;37.578;2023-04-23T10:14:01;5.32;;;1.50;;
35488;SDS011;21602;55.670;37.578;2023-04-23T10:16:28;2.40;;;1.17;;
35488;SDS011;21602;55.670;37.578;2023-04-23T10:18:54;4.15;;;1.50;;
35488;SDS011;21602;55.670;37.578;2023-04-23T10:21:27;1.98;;;1.35;;
35488;SDS011;21602;55.670;37.578;2023-04-23T10:23:58;3.15;;;1.55;;
35488;SDS011;21602;55.670;37.578;2023-04-23T10:26:26;2.90;;;1.38;;
35488;SDS011;21602;55.670;37.578;2023-04-23T10:28:57;2.25;;;1.23;;
35488;SDS011;21602;55.670;37.578;2023-04-23T10:31:25;4.35;;;1.20;;
35488;SDS011;21602;55.670;37.578;2023-04-23T10:33:52;3.85;;;1.50;;
35488;SDS011;21602;55.670;37.578;2023-04-23T10:36:20;1.90;;;0.93;;
35488;SDS011;21602;55.670;37.578;2023-04-23T10:38:50;6.38;;;1.33;;
35488;SDS011;21602;55.670;37.578;2023-04-23T10:41:34;4.28;;;1.48;;
35488;SDS011;21602;55.670;37.578;2023-04-23T10:44:02;5.18;;;1.30;;
35488;SDS011;21602;55.670;37.578;2023-04-23T10:46:30;3.05;;;1.42;;
35488;SDS011;21602;55.670;37.578;2023-04-23T10:49:10;2.20;;;1.27;;
35488;SDS011;21602;55.670;37.578;2023-04-23T10:51:46;3.42;;;1.35;;
35488;SDS011;21602;55.670;37.578;2023-04-23T10:54:16;7.32;;;1.20;;
35488;SDS011;21602;55.670;37.578;2023-04-23T10:56:43;1.50;;;1.23;;
35488;SDS011;21602;55.670;37.578;2023-04-23T10:59:19;8.02;;;1.40;;
35488;SDS011;21602;55.670;37.578;2023-04-23T11:01:51;5.80;;;1.50;;
35488;SDS011;21602;55.670;37.578;2023-04-23T11:04:23;1.52;;;1.00;;
35488;SDS011;21602;55.670;37.578;2023-04-23T11:06:53;2.53;;;1.80;;
35488;SDS011;21602;55.670;37.578;2023-04-23T11:09:47;2.58;;;1.17;;
35488;SDS011;21602;55.670;37.578;2023-04-23T11:14:50;12.15;;;9.05;;
35488;SDS011;21602;55.670;37.578;2023-04-23T11:17:17;7.07;;;4.30;;
35488;SDS011;21602;55.670;37.578;2023-04-23T11:20:46;2.75;;;1.48;;
35488;SDS011;21602;55.670;37.578;2023-04-23T11:22:46;4.82;;;1.30;;
35488;SDS011;21602;55.670;37.578;2023-04-23T11:25:25;2.10;;;1.42;;
35488;SDS011;21602;55.670;37.578;2023-04-23T11:27:54;7.20;;;1.60;;
35488;SDS011;21602;55.670;37.578;2023-04-23T11:32:50;4.85;;;1.20;;
35488;SDS011;21602;55.670;37.578;2023-04-23T11:35:18;4.95;;;1.75;;
35488;SDS011;21602;55.670;37.578;2023-04-23T11:37:45;3.83;;;1.48;;
35488;SDS011;21602;55.670;37.578;2023-04-23T11:40:15;2.03;;;1.45;;
35488;SDS011;21602;55.670;37.578;2023-04-23T11:42:50;5.30;;;1.35;;
35488;SDS011;21602;55.670;37.578;2023-04-23T11:45:20;3.35;;;1.60;;
35488;SDS011;21602;55.670;37.578;2023-04-23T11:47:49;4.25;;;1.42;;
35488;SDS011;21602;55.670;37.578;2023-04-23T11:50:22;4.63;;;1.83;;
35488;SDS011;21602;55.670;37.578;2023-04-23T11:52:55;5.00;;;1.67;;
35488;SDS011;21602;55.670;37.578;2023-04-23T11:55:22;4.80;;;1.65;;
35488;SDS011;21602;55.670;37.578;2023-04-23T11:57:49;3.85;;;1.30;;
35488;SDS011;21602;55.670;37.578;2023-04-23T12:00:22;3.53;;;1.60;;
35488;SDS011;21602;55.670;37.578;2023-04-23T12:02:50;3.30;;;1.63;;
35488;SDS011;21602;55.670;37.578;2023-04-23T12:05:21;4.75;;;1.80;;
35488;SDS011;21602;55.670;37.578;2023-04-23T12:07:52;15.73;;;2.67;;
35488;SDS011;21602;55.670;37.578;2023-04-23T12:10:18;3.88;;;1.30;;
35488;SDS011;21602;55.670;37.578;2023-04-23T12:12:51;6.40;;;1.50;;
35488;SDS011;21602;55.670;37.578;2023-04-23T12:15:18;5.68;;;1.60;;
35488;SDS011;21602;55.670;37.578;2023-04-23T12:17:48;2.85;;;1.60;;
35488;SDS011;21602;55.670;37.578;2023-04-23T12:20:19;4.00;;;1.88;;
35488;SDS011;21602;55.670;37.578;2023-04-23T12:22:47;5.28;;;2.03;;
35488;SDS011;21602;55.670;37.578;2023-04-23T12:25:13;2.95;;;1.90;;
35488;SDS011;21602;55.670;37.578;2023-04-23T12:27:40;2.33;;;1.83;;
35488;SDS011;21602;55.670;37.578;2023-04-23T12:30:09;13.10;;;2.03;;
35488;SDS011;21602;55.670;37.578;2023-04-23T12:32:36;3.53;;;1.63;;
35488;SDS011;21602;55.670;37.578;2023-04-23T12:35:02;3.67;;;1.95;;
35488;SDS011;21602;55.670;37.578;2023-04-23T12:37:34;9.15;;;2.17;;
35488;SDS011;21602;55.670;37.578;2023-04-23T12:40:01;4.22;;;1.70;;
35488;SDS011;21602;55.670;37.578;2023-04-23T12:42:31;6.18;;;1.48;;
35488;SDS011;21602;55.670;37.578;2023-04-23T12:45:04;3.28;;;1.70;;
35488;SDS011;21602;55.670;37.578;2023-04-23T12:47:31;3.33;;;1.30;;
35488;SDS011;21602;55.670;37.578;2023-04-23T12:49:57;5.30;;;1.92;;
35488;SDS011;21602;55.670;37.578;2023-04-23T12:52:25;3.67;;;1.48;;
35488;SDS011;21602;55.670;37.578;2023-04-23T12:54:52;4.15;;;1.63;;
35488;SDS011;21602;55.670;37.578;2023-04-23T12:57:20;5.72;;;2.60;;
35488;SDS011;21602;55.670;37.578;2023-04-23T12:59:47;5.00;;;2.42;;
35488;SDS011;21602;55.670;37.578;2023-04-23T13:02:13;2.95;;;2.30;;
35488;SDS011;21602;55.670;37.578;2023-04-23T13:04:39;7.30;;;2.50;;
35488;SDS011;21602;55.670;37.578;2023-04-23T13:07:05;7.38;;;3.58;;
35488;SDS011;21602;55.670;37.578;2023-04-23T13:09:31;7.32;;;2.38;;
35488;SDS011;21602;55.670;37.578;2023-04-23T13:11:57;6.05;;;1.90;;
35488;SDS011;21602;55.670;37.578;2023-04-23T13:14:24;5.65;;;2.03;;
35488;SDS011;21602;55.670;37.578;2023-04-23T13:16:51;6.40;;;2.50;;
35488;SDS011;21602;55.670;37.578;2023-04-23T13:19:17;3.80;;;2.30;;
35488;SDS011;21602;55.670;37.578;2023-04-23T13:21:43;5.72;;;2.50;;
35488;SDS011;21602;55.670;37.578;2023-04-23T13:24:10;6.13;;;2.30;;
35488;SDS011;21602;55.670;37.578;2023-04-23T13:26:36;4.28;;;2.10;;
35488;SDS011;21602;55.670;37.578;2023-04-23T13:29:03;7.30;;;2.92;;
35488;SDS011;21602;55.670;37.578;2023-04-23T13:31:29;5.30;;;2.88;;
35488;SDS011;21602;55.670;37.578;2023-04-23T13:33:55;2.28;;;1.73;;
35488;SDS011;21602;55.670;37.578;2023-04-23T13:36:22;3.85;;;1.80;;
35488;SDS011;21602;55.670;37.578;2023-04-23T13:38:48;5.88;;;2.35;;
35488;SDS011;21602;55.670;37.578;2023-04-23T13:41:14;3.72;;;1.88;;
35488;SDS011;21602;55.670;37.578;2023-04-23T13:43:40;3.58;;;1.83;;
35488;SDS011;21602;55.670;37.578;2023-04-23T13:46:06;3.22;;;1.80;;
35488;SDS011;21602;55.670;37.578;2023-04-23T13:48:35;7.30;;;4.10;;
35488;SDS011;21602;55.670;37.578;2023-04-23T13:51:01;14.85;;;2.40;;
35488;SDS011;21602;55.670;37.578;2023-04-23T13:53:27;3.38;;;2.10;;
35488;SDS011;21602;55.670;37.578;2023-04-23T13:55:54;3.33;;;1.98;;
35488;SDS011;21602;55.670;37.578;2023-04-23T13:58:20;5.65;;;2.13;;
35488;SDS011;21602;55.670;37.578;2023-04-23T14:00:48;5.13;;;2.10;;
35488;SDS011;21602;55.670;37.578;2023-04-23T14:03:14;9.68;;;1.92;;
35488;SDS011;21602;55.670;37.578;2023-04-23T14:05:40;6.13;;;2.40;;
35488;SDS011;21602;55.670;37.578;2023-04-23T14:08:06;4.43;;;2.08;;
35488;SDS011;21602;55.670;37.578;2023-04-23T14:10:32;4.05;;;2.35;;
35488;SDS011;21602;55.670;37.578;2023-04-23T14:12:59;5.15;;;2.22;;
35488;SDS011;21602;55.670;37.578;2023-04-23T14:15:25;3.85;;;2.00;;
35488;SDS011;21602;55.670;37.578;2023-04-23T14:17:51;3.45;;;2.60;;
35488;SDS011;21602;55.670;37.578;2023-04-23T14:20:17;12.70;;;4.78;;
35488;SDS011;21602;55.670;37.578;2023-04-23T14:22:47;8.32;;;2.53;;
35488;SDS011;21602;55.670;37.578;2023-04-23T14:25:21;6.45;;;2.53;;
35488;SDS011;21602;55.670;37.578;2023-04-23T14:28:21;5.72;;;2.30;;
35488;SDS011;21602;55.670;37.578;2023-04-23T14:30:48;2.88;;;1.90;;
35488;SDS011;21602;55.670;37.578;2023-04-23T14:33:14;6.30;;;1.85;;
35488;SDS011;21602;55.670;37.578;2023-04-23T14:35:40;5.32;;;2.17;;
35488;SDS011;21602;55.670;37.578;2023-04-23T14:38:06;3.05;;;1.95;;
35488;SDS011;21602;55.670;37.578;2023-04-23T14:40:32;7.00;;;1.85;;
35488;SDS011;21602;55.670;37.578;2023-04-23T14:42:58;4.57;;;1.75;;
35488;SDS011;21602;55.670;37.578;2023-04-23T14:45:24;4.32;;;1.90;;
35488;SDS011;21602;55.670;37.578;2023-04-23T14:47:50;3.45;;;1.95;;
35488;SDS011;21602;55.670;37.578;2023-04-23T14:50:16;3.30;;;1.88;;
35488;SDS011;21602;55.670;37.578;2023-04-23T14:52:46;7.78;;;1.88;;